createdAt,value
2023-01-12T00:02:28.698Z,100232.66
2023-01-12T00:04:57.200Z,100238.73
2023-01-12T00:07:27.789Z,100239.79
2023-01-12T00:09:57.341Z,100247.09
2023-01-12T00:12:48.058Z,100247.78
2023-01-12T00:15:37.145Z,100254.04
2023-01-12T00:18:06.167Z,100247.78
2023-01-12T00:20:34.760Z,100253.34
2023-01-12T00:23:12.826Z,100263.59
2023-01-12T00:25:55.939Z,100262.00
2023-01-12T00:28:26.397Z,100260.27
2023-01-12T00:31:17.763Z,100270.35
2023-01-12T00:33:48.429Z,100272.08
2023-01-12T00:36:28.172Z,100275.73
2023-01-12T00:38:59.225Z,100281.64
2023-01-12T00:42:08.956Z,100284.07
2023-01-12T00:45:20.768Z,100290.15
2023-01-12T00:47:58.074Z,100296.56
2023-01-12T00:50:52.113Z,100296.22
2023-01-12T00:53:47.464Z,100299.69
2023-01-12T00:56:38.683Z,100307.33
2023-01-12T00:59:16.900Z,100310.09
2023-01-12T01:02:10.175Z,100313.05
2023-01-12T01:04:58.638Z,100314.78
2023-01-12T01:07:36.306Z,100312.17
2023-01-12T01:10:06.147Z,100319.45
2023-01-12T01:12:40.515Z,100320.33
2023-01-12T01:15:24.406Z,100323.09
2023-01-12T01:18:04.484Z,100324.65
2023-01-12T01:20:53.247Z,100323.59
2023-01-12T01:23:55.802Z,100325.17
2023-01-12T01:26:31.392Z,100330.02
2023-01-12T01:29:00.310Z,100334.89
2023-01-12T01:31:30.486Z,100334.19
2023-01-12T01:33:59.614Z,100340.27
2023-01-12T01:36:28.797Z,100341.66
2023-01-12T01:39:00.652Z,100339.21
2023-01-12T01:41:49.389Z,100338.33
2023-01-12T01:45:01.405Z,100339.02
2023-01-12T01:48:00.512Z,100334.16
2023-01-12T01:50:56.874Z,100334.33
2023-01-12T01:53:30.669Z,100328.42
2023-01-12T01:56:25.519Z,100326.52
2023-01-12T01:59:10.359Z,100326.16
2023-01-12T02:02:02.496Z,100324.06
2023-01-12T02:04:34.941Z,100318.16
2023-01-12T02:07:27.095Z,100319.36
2023-01-12T02:10:19.211Z,100320.58
2023-01-12T02:13:35.507Z,100318.84
2023-01-12T02:16:20.690Z,100320.05
2023-01-12T02:19:35.036Z,100324.55
2023-01-12T02:22:29.924Z,100319.17
2023-01-12T02:25:36.505Z,100328.04
2023-01-12T02:28:38.156Z,100332.56
2023-01-12T02:31:43.099Z,100334.14
2023-01-12T02:34:37.734Z,100332.92
2023-01-12T02:37:41.554Z,100325.79
2023-01-12T02:40:24.700Z,100335.69
2023-01-12T02:43:07.334Z,100333.60
2023-01-12T02:45:49.974Z,100333.95
2023-01-12T02:48:28.412Z,100330.47
2023-01-12T02:51:33.336Z,100330.31
2023-01-12T02:54:26.070Z,100328.05
2023-01-12T02:57:08.043Z,100332.39
2023-01-12T03:00:07.239Z,100329.46
2023-01-12T03:03:01.668Z,100330.48
2023-01-12T03:05:35.186Z,100337.42
2023-01-12T03:08:06.464Z,100336.70
2023-01-12T03:10:58.006Z,100335.48
2023-01-12T03:13:39.051Z,100333.56
2023-01-12T03:16:41.382Z,100337.01
2023-01-12T03:19:36.671Z,100334.91
2023-01-12T03:22:26.750Z,100326.56
2023-01-12T03:25:21.688Z,100324.63
2023-01-12T03:27:54.430Z,100331.59
2023-01-12T03:30:50.796Z,100326.20
2023-01-12T03:33:43.098Z,100318.58
2023-01-12T03:36:55.425Z,100318.08
2023-01-12T03:39:38.809Z,100323.80
2023-01-12T03:42:16.795Z,100322.42
2023-01-12T03:45:20.017Z,100321.73
2023-01-12T03:48:22.684Z,100323.10
2023-01-12T03:50:56.753Z,100330.73
2023-01-12T03:53:37.498Z,100335.40
2023-01-12T03:56:32.543Z,100331.56
2023-01-12T03:59:04.080Z,100329.64
2023-01-12T04:02:11.530Z,100333.78
2023-01-12T04:05:03.250Z,100340.70
2023-01-12T04:07:58.008Z,100344.98
2023-01-12T04:10:48.354Z,100341.42
2023-01-12T04:13:44.862Z,100341.38
2023-01-12T04:16:20.887Z,100343.29
2023-01-12T04:18:50.511Z,100343.63
2023-01-12T04:21:58.202Z,100339.94
2023-01-12T04:24:36.723Z,100338.34
2023-01-12T04:27:27.724Z,100336.55
2023-01-12T04:30:27.000Z,100336.33
2023-01-12T04:33:19.550Z,100335.91
2023-01-12T04:36:14.091Z,100333.95
2023-01-12T04:38:46.601Z,100336.17
2023-01-12T04:41:37.793Z,100342.58
2023-01-12T04:44:32.400Z,100346.58
2023-01-12T04:47:23.168Z,100350.92
2023-01-12T04:50:15.141Z,100345.92
2023-01-12T04:53:06.253Z,100343.66
2023-01-12T04:58:39.400Z,100330.32
2023-01-12T05:01:21.931Z,100327.20
2023-01-12T05:04:14.317Z,100323.34
2023-01-12T05:07:11.717Z,100327.84
2023-01-12T05:10:20.271Z,100327.80
2023-01-12T05:12:51.098Z,100330.91
2023-01-12T05:15:20.527Z,100331.93
2023-01-12T05:17:49.003Z,100332.43
2023-01-12T05:20:18.244Z,100326.88
2023-01-12T05:22:47.888Z,100328.78
2023-01-12T05:25:16.229Z,100329.64
2023-01-12T05:27:45.036Z,100332.41
2023-01-12T05:30:21.378Z,100322.20
2023-01-12T05:32:55.137Z,100318.05
2023-01-12T05:35:24.130Z,100312.67
2023-01-12T05:38:02.785Z,100310.44
2023-01-12T05:40:34.106Z,100310.63
2023-01-12T05:43:21.610Z,100312.90
2023-01-12T05:45:50.760Z,100314.11
2023-01-12T05:48:18.982Z,100313.75
2023-01-12T05:50:47.436Z,100313.39
2023-01-12T05:53:15.074Z,100318.05
2023-01-12T05:55:44.020Z,100323.63
2023-01-12T05:58:25.271Z,100325.36
2023-01-12T06:00:54.179Z,100329.19
2023-01-12T06:03:24.692Z,100327.61
2023-01-12T06:06:00.195Z,100330.02
2023-01-12T06:08:52.624Z,100323.81
2023-01-12T06:11:51.199Z,100321.91
2023-01-12T06:14:21.536Z,100314.83
2023-01-12T06:16:49.856Z,100314.48
2023-01-12T06:19:19.177Z,100318.13
2023-01-12T06:21:49.840Z,100313.82
2023-01-12T06:24:22.094Z,100310.35
2023-01-12T06:26:51.687Z,100305.33
2023-01-12T06:29:38.021Z,100306.92
2023-01-12T06:32:07.870Z,100306.94
2023-01-12T06:34:39.283Z,100316.50
2023-01-12T06:37:15.551Z,100317.22
2023-01-12T06:39:48.594Z,100321.73
2023-01-12T06:42:31.085Z,100317.40
2023-01-12T06:45:04.798Z,100316.54
2023-01-12T06:47:44.121Z,100310.66
2023-01-12T06:50:15.727Z,100306.51
2023-01-12T06:52:44.329Z,100302.35
2023-01-12T06:55:16.784Z,100300.81
2023-01-12T06:57:47.101Z,100293.73
2023-01-12T07:00:16.566Z,100296.55
2023-01-12T07:02:44.088Z,100303.02
2023-01-12T07:05:11.761Z,100306.70
2023-01-12T07:07:40.468Z,100309.68
2023-01-12T07:10:12.067Z,100314.59
2023-01-12T07:12:42.317Z,100310.98
2023-01-12T07:15:11.179Z,100308.58
2023-01-12T07:17:40.207Z,100301.65
2023-01-12T07:35:53.631Z,100298.47
2023-01-12T07:38:21.537Z,100306.98
2023-01-12T07:40:49.136Z,100305.25
2023-01-12T07:43:18.545Z,100308.04
2023-01-12T07:45:48.586Z,100306.86
2023-01-12T07:48:20.550Z,100307.79
2023-01-12T07:50:48.264Z,100306.05
2023-01-12T07:53:15.808Z,100299.80
2023-01-12T07:55:43.440Z,100297.71
2023-01-12T07:58:11.407Z,100295.65
2023-01-12T08:00:39.170Z,100290.09
2023-01-12T08:03:08.986Z,100291.33
2023-01-12T08:05:38.089Z,100296.00
2023-01-12T08:08:06.946Z,100299.48
2023-01-12T08:10:34.946Z,100297.05
2023-01-12T08:13:02.983Z,100293.75
2023-01-12T08:15:35.369Z,100296.88
2023-01-12T08:18:07.550Z,100290.80
2023-01-12T08:20:36.209Z,100297.08
2023-01-12T08:23:09.739Z,100299.69
2023-01-12T08:25:43.833Z,100292.57
2023-01-12T08:28:17.492Z,100294.85
2023-01-12T08:30:49.186Z,100298.85
2023-01-12T08:33:19.556Z,100292.44
2023-01-12T08:35:48.045Z,100299.42
2023-01-12T08:38:15.929Z,100299.59
2023-01-12T08:41:01.759Z,100299.42
2023-01-12T08:43:47.792Z,100303.07
2023-01-12T08:46:15.804Z,100301.50
2023-01-12T08:48:43.432Z,100305.33
2023-01-12T08:51:10.979Z,100303.41
2023-01-12T08:53:38.508Z,100298.86
2023-01-12T08:56:07.715Z,100304.95
2023-01-12T08:58:35.245Z,100301.80
2023-01-12T09:01:08.545Z,100294.86
2023-01-12T09:03:37.117Z,100291.20
2023-01-12T09:06:12.967Z,100285.20
2023-01-12T09:08:43.805Z,100285.50
2023-01-12T09:11:13.154Z,100295.30
2023-01-12T09:13:41.031Z,100293.95
2023-01-12T09:16:13.412Z,100300.23
2023-01-12T09:18:41.712Z,100294.30
2023-01-12T09:21:10.653Z,100285.95
2023-01-12T09:23:39.205Z,100287.84
2023-01-12T09:26:08.827Z,100274.41
2023-01-12T09:28:37.274Z,100281.55
2023-01-12T09:31:07.318Z,100278.77
2023-01-12T09:33:36.200Z,100277.69
2023-01-12T09:36:06.298Z,100276.80
2023-01-12T09:38:35.634Z,100274.86
2023-01-12T09:41:10.399Z,100275.38
2023-01-12T09:43:57.396Z,100268.23
2023-01-12T09:46:53.248Z,100268.02
2023-01-12T09:49:24.135Z,100265.57
2023-01-12T09:52:08.089Z,100267.27
2023-01-12T09:54:35.981Z,100267.60
2023-01-12T09:57:20.724Z,100270.55
2023-01-12T10:00:02.144Z,100263.52
2023-01-12T10:02:44.244Z,100259.67
2023-01-12T10:05:31.497Z,100256.86
2023-01-12T10:08:15.151Z,100254.41
2023-01-12T10:10:50.174Z,100257.03
2023-01-12T10:13:19.678Z,100251.29
2023-01-12T10:15:53.227Z,100251.66
2023-01-12T10:18:29.842Z,100249.05
2023-01-12T10:20:58.381Z,100246.63
2023-01-12T10:23:27.504Z,100241.23
2023-01-12T10:26:02.897Z,100235.45
2023-01-12T10:28:32.956Z,100240.82
2023-01-12T10:31:01.171Z,100242.02
2023-01-12T10:33:30.523Z,100244.60
2023-01-12T10:36:02.478Z,100244.08
2023-01-12T10:38:34.325Z,100239.39
2023-01-12T10:41:16.354Z,100233.46
2023-01-12T10:43:45.856Z,100230.84
2023-01-12T10:46:16.583Z,100225.42
2023-01-12T10:48:46.776Z,100221.02
2023-01-12T10:51:23.512Z,100216.44
2023-01-12T10:53:54.113Z,100206.27
2023-01-12T10:56:27.858Z,100203.94
2023-01-12T10:58:59.462Z,100195.70
2023-01-12T11:01:42.601Z,100186.41
2023-01-12T11:04:13.667Z,100178.20
2023-01-12T11:06:46.084Z,100169.44
2023-01-12T11:09:24.540Z,100163.29
2023-01-12T11:11:56.992Z,100157.16
2023-01-12T11:14:29.843Z,100158.39
2023-01-12T11:17:15.531Z,100152.28
2023-01-12T11:19:43.914Z,100149.97
2023-01-12T11:22:17.241Z,100148.55
2023-01-12T11:24:52.280Z,100140.65
2023-01-12T11:27:28.737Z,100132.60
2023-01-12T11:30:01.584Z,100126.15
2023-01-12T11:32:37.681Z,100122.33
2023-01-12T11:35:27.776Z,100117.88
2023-01-12T11:38:00.607Z,100117.03
2023-01-12T11:40:32.282Z,100111.81
2023-01-12T11:43:29.009Z,100100.95
2023-01-12T11:46:05.258Z,100097.77
2023-01-12T11:48:42.707Z,100105.05
2023-01-12T11:51:12.268Z,100096.32
2023-01-12T11:53:41.582Z,100101.50
2023-01-12T11:56:27.809Z,100096.43
2023-01-12T11:59:03.953Z,100099.05
2023-01-12T12:01:40.637Z,100104.61
2023-01-12T12:04:22.046Z,100104.91
2023-01-12T12:07:12.221Z,100102.98
2023-01-12T12:10:05.272Z,100101.68
2023-01-12T12:12:44.525Z,100098.45
2023-01-12T12:15:27.778Z,100092.61
2023-01-12T12:18:06.221Z,100084.53
2023-01-12T12:20:41.362Z,100079.46
2023-01-12T12:23:25.012Z,100074.44
2023-01-12T12:26:03.293Z,100077.09
2023-01-12T12:28:51.903Z,100074.29
2023-01-12T12:31:37.847Z,100076.02
2023-01-12T12:34:25.459Z,100069.51
2023-01-12T12:37:02.461Z,100072.44
2023-01-12T12:39:43.659Z,100068.08
2023-01-12T12:43:01.928Z,100063.92
2023-01-12T12:45:38.309Z,100062.40
2023-01-12T12:48:15.086Z,100063.48
2023-01-12T12:50:52.330Z,100059.45
2023-01-12T12:53:28.266Z,100055.74
2023-01-12T12:56:00.657Z,100057.45
2023-01-12T12:58:46.455Z,100054.11
2023-01-12T13:01:41.893Z,100049.86
2023-01-12T13:04:12.088Z,100053.80
2023-01-12T13:06:41.938Z,100048.48
2023-01-12T13:09:40.114Z,100052.40
2023-01-12T13:12:32.970Z,100055.10
2023-01-12T13:15:20.214Z,100050.22
2023-01-12T13:17:50.057Z,100052.13
2023-01-12T13:20:53.368Z,100053.00
2023-01-12T13:23:47.599Z,100048.17
2023-01-12T13:26:42.369Z,100050.31
2023-01-12T13:29:37.302Z,100050.33
2023-01-12T13:32:40.089Z,100050.30
2023-01-12T13:35:48.321Z,100046.46
2023-01-12T13:38:27.211Z,100047.48
2023-01-12T13:41:10.565Z,100040.66
2023-01-12T13:43:41.331Z,100043.39
2023-01-12T13:46:15.751Z,100041.86
2023-01-12T13:48:46.741Z,100037.08
2023-01-12T13:51:20.945Z,100030.83
2023-01-12T13:53:58.978Z,100033.16
2023-01-12T13:56:26.635Z,100026.30
2023-01-12T13:59:01.797Z,100024.66
2023-01-12T14:01:33.280Z,100028.30
2023-01-12T14:04:19.948Z,100025.48
2023-01-12T14:06:59.361Z,100018.81
2023-01-12T14:09:37.840Z,100020.60
2023-01-12T14:12:38.115Z,100018.77
2023-01-12T14:15:51.200Z,100013.40
2023-01-12T14:18:24.214Z,100009.43
2023-01-12T14:20:54.116Z,100009.77
2023-01-12T14:23:25.767Z,100008.69
2023-01-12T14:26:16.764Z,100010.92
2023-01-12T14:28:45.891Z,100005.83
2023-01-12T14:31:22.675Z,100003.21
2023-01-12T14:33:53.842Z,99999.77
2023-01-12T14:36:26.070Z,99995.79
2023-01-12T14:38:54.764Z,99996.50
2023-01-12T14:41:44.617Z,99996.20
2023-01-12T14:44:36.572Z,99996.91
2023-01-12T14:47:04.230Z,99999.01
2023-01-12T14:49:33.406Z,100001.63
2023-01-12T14:52:02.494Z,100001.11
2023-01-12T14:54:32.275Z,100004.42
2023-01-12T14:57:03.072Z,100006.17
2023-01-12T14:59:33.403Z,100006.00
2023-01-12T15:02:29.626Z,100002.33
2023-01-12T15:05:00.252Z,100001.27
2023-01-12T15:07:32.603Z,100002.50
2023-01-12T15:10:03.626Z,99999.89
2023-01-12T15:12:43.726Z,100002.69
2023-01-12T15:15:20.460Z,99995.72
2023-01-12T15:18:07.840Z,99993.80
2023-01-12T15:20:56.230Z,99989.30
2023-01-12T15:23:46.967Z,99988.98
2023-01-12T15:26:14.568Z,99984.84
2023-01-12T15:28:42.494Z,99978.44
2023-01-12T15:31:17.370Z,99979.16
2023-01-12T15:33:45.159Z,99978.33
2023-01-12T15:36:14.299Z,99984.10
2023-01-12T15:38:41.871Z,99981.66
2023-01-12T15:41:15.446Z,99982.02
2023-01-12T15:43:42.965Z,99980.47
2023-01-12T15:46:17.910Z,99982.71
2023-01-12T15:48:45.482Z,99974.50
2023-01-12T15:51:15.462Z,99969.45
2023-01-12T15:53:42.994Z,99967.72
2023-01-12T15:56:14.768Z,99964.77
2023-01-12T15:58:42.334Z,99970.34
2023-01-12T16:01:16.792Z,99967.21
2023-01-12T16:04:18.321Z,99960.59
2023-01-12T16:06:36.796Z,99961.98
2023-01-12T16:09:05.063Z,99957.30
2023-01-12T16:11:55.671Z,99961.50
2023-01-12T16:14:45.202Z,99960.30
2023-01-12T16:17:34.867Z,99959.29
2023-01-12T16:20:26.328Z,99957.23
2023-01-12T16:23:09.879Z,99953.79
2023-01-12T16:25:39.428Z,99955.02
2023-01-12T16:28:28.487Z,99954.05
2023-01-12T16:31:01.834Z,99957.05
2023-01-12T16:33:32.429Z,99959.02
2023-01-12T16:36:22.217Z,99955.59
2023-01-12T16:38:56.684Z,99956.31
2023-01-12T16:41:25.938Z,99953.22
2023-01-12T16:44:18.462Z,99956.90
2023-01-12T16:47:10.552Z,99959.21
2023-01-12T16:49:39.753Z,99959.95
2023-01-12T16:52:13.912Z,99958.58
2023-01-12T16:55:05.528Z,99960.70
2023-01-12T16:57:57.033Z,99954.79
2023-01-12T17:00:46.566Z,99954.46
2023-01-12T17:03:41.545Z,99949.59
2023-01-12T17:06:43.870Z,99943.14
2023-01-12T17:09:38.564Z,99940.20
2023-01-12T17:12:26.832Z,99937.25
2023-01-12T17:15:16.461Z,99934.84
2023-01-12T17:17:58.400Z,99931.04
2023-01-12T17:21:09.088Z,99933.14
2023-01-12T17:23:47.368Z,99930.03
2023-01-12T17:26:40.031Z,99927.26
2023-01-12T17:29:14.913Z,99924.09
2023-01-12T17:32:07.543Z,99926.87
2023-01-12T17:34:43.754Z,99926.68
2023-01-12T17:37:35.040Z,99921.11
2023-01-12T17:40:28.090Z,99915.36
2023-01-12T17:43:17.111Z,99916.23
2023-01-12T17:45:51.184Z,99907.34
2023-01-12T17:48:20.875Z,99902.29
2023-01-12T17:51:16.029Z,99907.67
2023-01-12T17:54:09.149Z,99908.52
2023-01-12T17:57:12.821Z,99905.20
2023-01-12T18:00:03.657Z,99906.59
2023-01-12T18:03:01.179Z,99907.96
2023-01-12T18:06:02.935Z,99903.24
2023-01-12T18:09:02.342Z,99903.75
2023-01-12T18:11:33.451Z,99903.55
2023-01-12T18:14:23.949Z,99910.85
2023-01-12T18:16:59.967Z,99911.53
2023-01-12T18:19:54.891Z,99913.61
2023-01-12T18:22:47.878Z,99917.59
2023-01-12T18:25:41.805Z,99914.45
2023-01-12T18:28:26.069Z,99916.70
2023-01-12T18:34:26.769Z,99914.89
2023-01-12T18:37:21.138Z,99915.92
2023-01-12T18:39:59.435Z,99909.46
2023-01-12T18:42:48.923Z,99902.98
2023-01-12T18:45:39.739Z,99903.16
2023-01-12T18:48:37.445Z,99902.98
2023-01-12T18:51:46.918Z,99905.61
2023-01-12T18:54:17.136Z,99908.04
2023-01-12T18:57:12.139Z,99908.20
2023-01-12T19:00:13.743Z,99905.77
2023-01-12T19:03:05.146Z,99906.29
2023-01-12T19:06:04.730Z,99904.19
2023-01-12T19:09:13.920Z,99906.97
2023-01-12T19:11:46.207Z,99906.77
2023-01-12T19:14:57.423Z,99909.90
2023-01-12T19:17:56.323Z,99913.55
2023-01-12T19:20:48.028Z,99914.94
2023-01-12T19:23:40.902Z,99913.01
2023-01-12T19:26:51.769Z,99911.42
2023-01-12T19:30:03.393Z,99910.88
2023-01-12T19:33:09.035Z,99910.02
2023-01-12T19:36:19.599Z,99908.64
2023-01-12T19:39:00.870Z,99904.45
2023-01-12T19:45:50.540Z,99898.36
2023-01-12T19:48:48.440Z,99901.14
2023-01-12T19:51:50.841Z,99893.14
2023-01-12T19:54:43.569Z,99889.30
2023-01-12T19:57:39.027Z,99886.67
2023-01-12T20:00:26.601Z,99879.00
2023-01-12T20:03:23.058Z,99880.04
2023-01-12T20:06:21.342Z,99875.15
2023-01-12T20:09:42.170Z,99872.69
2023-01-12T20:12:27.491Z,99872.87
2023-01-12T20:15:31.414Z,99870.44
2023-01-12T20:18:31.826Z,99863.80
2023-01-12T20:21:25.635Z,99864.46
2023-01-12T20:24:01.609Z,99863.06
2023-01-12T20:27:06.872Z,99864.95
2023-01-12T20:30:11.140Z,99864.79
2023-01-12T20:32:47.550Z,99862.32
2023-01-12T20:35:23.731Z,99863.02
2023-01-12T20:38:24.912Z,99868.40
2023-01-12T20:41:16.188Z,99870.32
2023-01-12T20:43:48.964Z,99866.29
2023-01-12T20:46:26.346Z,99859.14
2023-01-12T20:49:16.236Z,99863.08
2023-01-12T20:52:11.334Z,99861.48
2023-01-12T20:55:05.313Z,99862.67
2023-01-12T20:57:39.017Z,99863.85
2023-01-12T21:00:33.595Z,99861.04
2023-01-12T21:03:07.985Z,99857.72
2023-01-12T21:06:02.402Z,99859.46
2023-01-12T21:08:58.596Z,99853.54
2023-01-12T21:11:49.834Z,99862.08
2023-01-12T21:14:48.230Z,99861.20
2023-01-12T21:17:45.291Z,99852.66
2023-01-12T21:21:11.511Z,99854.78
2023-01-12T21:24:04.819Z,99856.06
2023-01-12T21:27:01.151Z,99860.46
2023-01-12T21:29:39.646Z,99857.33
2023-01-12T21:32:14.212Z,99860.48
2023-01-12T21:34:57.057Z,99866.55
2023-01-12T21:37:51.035Z,99862.70
2023-01-12T21:40:57.108Z,99860.95
2023-01-12T21:43:51.899Z,99859.20
2023-01-12T21:46:48.316Z,99855.38
2023-01-12T21:49:41.681Z,99855.54
2023-01-12T21:52:37.940Z,99855.34
2023-01-12T21:55:38.120Z,99852.35
2023-01-12T21:58:40.481Z,99852.52
2023-01-12T22:01:30.328Z,99848.16
2023-01-12T22:04:30.094Z,99841.34
2023-01-12T22:07:11.785Z,99844.48
2023-01-12T22:10:20.816Z,99843.77
2023-01-12T22:13:17.386Z,99846.88
2023-01-12T22:15:51.559Z,99845.84
2023-01-12T22:18:47.475Z,99844.79
2023-01-12T22:21:51.641Z,99844.95
2023-01-12T22:24:44.232Z,99840.61
2023-01-12T22:27:18.876Z,99837.64
2023-01-12T22:30:14.086Z,99834.86
2023-01-12T22:33:18.665Z,99833.63
2023-01-12T22:36:12.074Z,99832.06
2023-01-12T22:39:00.682Z,99832.92
2023-01-12T22:41:31.641Z,99829.61
2023-01-12T22:44:06.851Z,99829.77
2023-01-12T22:46:57.273Z,99823.49
2023-01-12T22:49:57.164Z,99822.23
2023-01-12T22:52:57.843Z,99816.49
2023-01-12T22:55:51.798Z,99811.42
2023-01-12T22:58:47.136Z,99813.67
2023-01-12T23:01:28.914Z,99810.90
2023-01-12T23:04:26.565Z,99807.91
2023-01-12T23:07:37.598Z,99811.90
2023-01-12T23:10:30.343Z,99808.56
2023-01-12T23:13:24.836Z,99808.02
2023-01-12T23:16:17.990Z,99809.90
2023-01-12T23:19:08.105Z,99807.09
2023-01-12T23:22:03.855Z,99807.94
2023-01-12T23:25:01.800Z,99799.04
2023-01-12T23:28:06.815Z,99801.12
2023-01-12T23:31:08.095Z,99797.13
2023-01-12T23:33:44.570Z,99799.02
2023-01-12T23:36:39.656Z,99797.27
2023-01-12T23:39:37.269Z,99791.70
2023-01-12T23:42:35.599Z,99785.27
2023-01-12T23:45:29.667Z,99786.30
2023-01-12T23:48:32.365Z,99781.94
2023-01-12T23:51:38.033Z,99794.85
2023-01-12T23:54:47.170Z,99793.99
2023-01-12T23:57:50.871Z,99794.52
